Caete, Brazil
Current Conditions -  °F | °C
As of 7:00 PM on Sunday 23 Nov 2014 (Local Time) from SBCF Reporting Station
Light Rain Light Rain  
Wind Chill: 68°   Ceiling: Unl
Heat Index: 68°   Visibility: 0.43mi
Dew Point: 66°   Wind: 6mph
Humidity: 94%   Direction: 190°S
Pressure: 30"   Gusts: NA
Location:  19.88°S, 43.68°W
Report Text: SBCF 232100Z 19005KT 0700 R16/0500 R34/0900 -RA FG SCT004 BKN02 0 20/19 Q1016
Loading
Personal Weather Stations






























Interactive Weather Map New forecast layout! Learn more

10-Day Weather Forecast

Advertisements
Track Severe Weather on mobile